sensor_id;sensor_type;location;lat;lon;timestamp;pressure;altitude;pressure_sealevel;temperature;humidity
68301;BME280;55146;47.468;18.806;2023-03-04T00:01:42;100176.25;;;1.17;75.36
68301;BME280;55146;47.468;18.806;2023-03-04T00:04:07;100179.97;;;1.23;75.37
68301;BME280;55146;47.468;18.806;2023-03-04T00:06:32;100178.09;;;1.23;75.48
68301;BME280;55146;47.468;18.806;2023-03-04T00:08:58;100182.25;;;1.19;75.65
68301;BME280;55146;47.468;18.806;2023-03-04T00:11:23;100191.66;;;1.23;75.64
68301;BME280;55146;47.468;18.806;2023-03-04T00:13:49;100185.16;;;1.24;75.67
68301;BME280;55146;47.468;18.806;2023-03-04T00:16:14;100183.09;;;1.19;75.22
68301;BME280;55146;47.468;18.806;2023-03-04T00:18:40;100178.94;;;1.17;75.23
68301;BME280;55146;47.468;18.806;2023-03-04T00:21:05;100180.00;;;1.16;75.61
68301;BME280;55146;47.468;18.806;2023-03-04T00:23:31;100181.88;;;1.15;75.73
68301;BME280;55146;47.468;18.806;2023-03-04T00:25:56;100188.12;;;1.09;75.51
68301;BME280;55146;47.468;18.806;2023-03-04T00:28:22;100179.81;;;1.04;75.86
68301;BME280;55146;47.468;18.806;2023-03-04T00:30:48;100180.22;;;1.01;75.72
68301;BME280;55146;47.468;18.806;2023-03-04T00:33:13;100177.50;;;0.95;75.79
68301;BME280;55146;47.468;18.806;2023-03-04T00:35:39;100185.00;;;0.93;75.14
68301;BME280;55146;47.468;18.806;2023-03-04T00:38:04;100174.78;;;0.95;74.84
68301;BME280;55146;47.468;18.806;2023-03-04T00:40:30;100181.47;;;0.92;74.87
68301;BME280;55146;47.468;18.806;2023-03-04T00:42:55;100182.09;;;0.88;74.57
68301;BME280;55146;47.468;18.806;2023-03-04T00:45:20;100183.97;;;0.87;73.96
68301;BME280;55146;47.468;18.806;2023-03-04T00:47:46;100182.72;;;0.76;74.31
68301;BME280;55146;47.468;18.806;2023-03-04T00:50:11;100191.28;;;0.73;74.79
68301;BME280;55146;47.468;18.806;2023-03-04T00:52:36;100179.63;;;0.73;75.09
68301;BME280;55146;47.468;18.806;2023-03-04T00:55:02;100178.34;;;0.69;75.28
68301;BME280;55146;47.468;18.806;2023-03-04T00:57:28;100175.03;;;0.67;74.97
68301;BME280;55146;47.468;18.806;2023-03-04T00:59:53;100183.16;;;0.67;74.46
68301;BME280;55146;47.468;18.806;2023-03-04T01:02:19;100178.97;;;0.64;74.87
68301;BME280;55146;47.468;18.806;2023-03-04T01:04:44;100175.44;;;0.64;74.96
68301;BME280;55146;47.468;18.806;2023-03-04T01:07:09;100168.59;;;0.61;74.92
68301;BME280;55146;47.468;18.806;2023-03-04T01:09:35;100168.16;;;0.58;74.35
68301;BME280;55146;47.468;18.806;2023-03-04T01:12:00;100160.03;;;0.58;74.28
68301;BME280;55146;47.468;18.806;2023-03-04T01:14:25;100164.41;;;0.52;74.48
68301;BME280;55146;47.468;18.806;2023-03-04T01:16:51;100157.94;;;0.47;74.55
68301;BME280;55146;47.468;18.806;2023-03-04T01:19:16;100146.69;;;0.50;74.44
68301;BME280;55146;47.468;18.806;2023-03-04T01:21:42;100156.28;;;0.52;73.97
68301;BME280;55146;47.468;18.806;2023-03-04T01:24:07;100159.63;;;0.48;73.48
68301;BME280;55146;47.468;18.806;2023-03-04T01:26:33;100150.25;;;0.37;74.45
68301;BME280;55146;47.468;18.806;2023-03-04T01:28:58;100154.41;;;0.33;74.88
68301;BME280;55146;47.468;18.806;2023-03-04T01:31:24;100158.75;;;0.21;74.42
68301;BME280;55146;47.468;18.806;2023-03-04T01:33:49;100147.72;;;0.16;74.70
68301;BME280;55146;47.468;18.806;2023-03-04T01:36:14;100149.59;;;0.22;74.33
68301;BME280;55146;47.468;18.806;2023-03-04T01:38:40;100145.22;;;0.14;74.32
68301;BME280;55146;47.468;18.806;2023-03-04T01:41:05;100145.84;;;0.16;74.16
68301;BME280;55146;47.468;18.806;2023-03-04T01:43:34;100138.97;;;0.14;74.30
68301;BME280;55146;47.468;18.806;2023-03-04T01:46:00;100147.28;;;0.19;74.20
68301;BME280;55146;47.468;18.806;2023-03-04T01:48:33;100139.81;;;0.21;73.87
68301;BME280;55146;47.468;18.806;2023-03-04T01:51:04;100135.03;;;0.23;74.35
68301;BME280;55146;47.468;18.806;2023-03-04T01:53:31;100133.78;;;0.19;74.47
68301;BME280;55146;47.468;18.806;2023-03-04T01:56:01;100132.34;;;0.16;74.36
68301;BME280;55146;47.468;18.806;2023-03-04T01:58:30;100134.19;;;0.09;74.20
68301;BME280;55146;47.468;18.806;2023-03-04T02:00:56;100131.28;;;0.11;74.77
68301;BME280;55146;47.468;18.806;2023-03-04T02:03:23;100119.00;;;0.15;74.89
68301;BME280;55146;47.468;18.806;2023-03-04T02:05:50;100120.88;;;0.08;74.85
68301;BME280;55146;47.468;18.806;2023-03-04T02:08:18;100125.88;;;0.04;74.31
68301;BME280;55146;47.468;18.806;2023-03-04T02:10:45;100129.19;;;-0.01;74.05
68301;BME280;55146;47.468;18.806;2023-03-04T02:13:11;100127.31;;;-0.07;74.71
68301;BME280;55146;47.468;18.806;2023-03-04T02:15:38;100119.59;;;-0.10;74.93
68301;BME280;55146;47.468;18.806;2023-03-04T02:18:15;100122.94;;;-0.08;75.10
68301;BME280;55146;47.468;18.806;2023-03-04T02:20:47;100116.47;;;-0.13;75.57
68301;BME280;55146;47.468;18.806;2023-03-04T02:23:25;100115.19;;;-0.17;75.59
68301;BME280;55146;47.468;18.806;2023-03-04T02:28:37;100103.16;;;-0.15;76.48
68301;BME280;55146;47.468;18.806;2023-03-04T02:31:03;100098.59;;;-0.14;76.34
68301;BME280;55146;47.468;18.806;2023-03-04T02:33:28;100097.97;;;-0.10;76.49
68301;BME280;55146;47.468;18.806;2023-03-04T02:35:54;100099.22;;;-0.06;76.78
68301;BME280;55146;47.468;18.806;2023-03-04T02:38:19;100094.87;;;0.00;76.79
68301;BME280;55146;47.468;18.806;2023-03-04T02:40:48;100090.09;;;0.02;76.75
68301;BME280;55146;47.468;18.806;2023-03-04T02:43:15;100094.44;;;0.03;76.60
68301;BME280;55146;47.468;18.806;2023-03-04T02:45:43;100085.31;;;0.04;76.18
68301;BME280;55146;47.468;18.806;2023-03-04T02:48:11;100084.28;;;0.05;76.32
68301;BME280;55146;47.468;18.806;2023-03-04T02:50:42;100083.66;;;0.10;76.31
68301;BME280;55146;47.468;18.806;2023-03-04T02:53:08;100074.06;;;0.07;75.44
68301;BME280;55146;47.468;18.806;2023-03-04T02:55:34;100075.94;;;0.07;74.81
68301;BME280;55146;47.468;18.806;2023-03-04T02:57:59;100079.91;;;0.04;74.50
68301;BME280;55146;47.468;18.806;2023-03-04T03:00:25;100074.06;;;0.07;74.48
68301;BME280;55146;47.468;18.806;2023-03-04T03:02:51;100073.66;;;0.10;74.86
68301;BME280;55146;47.468;18.806;2023-03-04T03:05:17;100069.91;;;0.05;73.06
68301;BME280;55146;47.468;18.806;2023-03-04T03:07:42;100069.06;;;-0.03;73.15
68301;BME280;55146;47.468;18.806;2023-03-04T03:10:08;100068.44;;;-0.05;73.24
68301;BME280;55146;47.468;18.806;2023-03-04T03:12:34;100068.88;;;-0.08;72.92
68301;BME280;55146;47.468;18.806;2023-03-04T03:14:59;100072.19;;;-0.06;73.41
68301;BME280;55146;47.468;18.806;2023-03-04T03:17:25;100066.56;;;-0.11;72.98
68301;BME280;55146;47.468;18.806;2023-03-04T03:19:50;100067.19;;;-0.15;73.02
68301;BME280;55146;47.468;18.806;2023-03-04T03:22:16;100067.19;;;-0.15;72.97
68301;BME280;55146;47.468;18.806;2023-03-04T03:24:41;100060.31;;;-0.18;72.75
68301;BME280;55146;47.468;18.806;2023-03-04T03:27:06;100058.22;;;-0.22;72.71
68301;BME280;55146;47.468;18.806;2023-03-04T03:29:32;100057.59;;;-0.24;72.68
68301;BME280;55146;47.468;18.806;2023-03-04T03:31:57;100057.19;;;-0.28;72.87
68301;BME280;55146;47.468;18.806;2023-03-04T03:34:22;100063.00;;;-0.31;72.87
68301;BME280;55146;47.468;18.806;2023-03-04T03:36:48;100067.59;;;-0.31;73.07
68301;BME280;55146;47.468;18.806;2023-03-04T03:39:13;100056.12;;;-0.33;73.07
68301;BME280;55146;47.468;18.806;2023-03-04T03:41:40;100057.81;;;-0.32;73.71
68301;BME280;55146;47.468;18.806;2023-03-04T03:44:06;100060.50;;;-0.32;74.32
68301;BME280;55146;47.468;18.806;2023-03-04T03:46:31;100059.25;;;-0.30;74.60
68301;BME280;55146;47.468;18.806;2023-03-04T03:48:56;100053.44;;;-0.27;74.58
68301;BME280;55146;47.468;18.806;2023-03-04T03:51:22;100057.19;;;-0.28;74.19
68301;BME280;55146;47.468;18.806;2023-03-04T03:53:47;100064.25;;;-0.33;73.76
68301;BME280;55146;47.468;18.806;2023-03-04T03:56:13;100065.09;;;-0.33;73.48
68301;BME280;55146;47.468;18.806;2023-03-04T03:58:38;100066.75;;;-0.32;72.99
68301;BME280;55146;47.468;18.806;2023-03-04T04:01:03;100065.09;;;-0.33;72.77
68301;BME280;55146;47.468;18.806;2023-03-04T04:03:29;100067.16;;;-0.35;72.22
68301;BME280;55146;47.468;18.806;2023-03-04T04:05:55;100055.09;;;-0.32;71.95
68301;BME280;55146;47.468;18.806;2023-03-04T04:08:20;100058.19;;;-0.35;71.66
68301;BME280;55146;47.468;18.806;2023-03-04T04:10:46;100056.75;;;-0.38;72.11
68301;BME280;55146;47.468;18.806;2023-03-04T04:13:11;100059.03;;;-0.35;71.87
68301;BME280;55146;47.468;18.806;2023-03-04T04:15:37;100059.22;;;-0.36;71.74
68301;BME280;55146;47.468;18.806;2023-03-04T04:18:06;100065.84;;;-0.52;72.56
68301;BME280;55146;47.468;18.806;2023-03-04T04:20:32;100060.47;;;-0.52;72.89
68301;BME280;55146;47.468;18.806;2023-03-04T04:22:57;100059.62;;;-0.53;72.93
68301;BME280;55146;47.468;18.806;2023-03-04T04:25:23;100058.56;;;-0.58;72.69
68301;BME280;55146;47.468;18.806;2023-03-04T04:27:48;100057.13;;;-0.54;72.84
68301;BME280;55146;47.468;18.806;2023-03-04T04:30:14;100055.06;;;-0.52;72.83
68301;BME280;55146;47.468;18.806;2023-03-04T04:32:39;100053.38;;;-0.53;72.88
68301;BME280;55146;47.468;18.806;2023-03-04T04:35:05;100056.72;;;-0.51;72.89
68301;BME280;55146;47.468;18.806;2023-03-04T04:37:31;100057.56;;;-0.51;73.42
68301;BME280;55146;47.468;18.806;2023-03-04T04:39:57;100049.00;;;-0.54;73.42
68301;BME280;55146;47.468;18.806;2023-03-04T04:42:22;100046.53;;;-0.56;73.23
68301;BME280;55146;47.468;18.806;2023-03-04T04:44:48;100045.25;;;-0.60;73.03
68301;BME280;55146;47.468;18.806;2023-03-04T04:47:13;100044.00;;;-0.64;72.94
68301;BME280;55146;47.468;18.806;2023-03-04T04:49:39;100037.78;;;-0.58;72.73
68301;BME280;55146;47.468;18.806;2023-03-04T04:52:04;100043.19;;;-0.64;72.58
68301;BME280;55146;47.468;18.806;2023-03-04T04:54:30;100038.16;;;-0.67;72.68
68301;BME280;55146;47.468;18.806;2023-03-04T04:56:55;100038.16;;;-0.67;73.12
68301;BME280;55146;47.468;18.806;2023-03-04T04:59:21;100039.81;;;-0.73;72.94
68301;BME280;55146;47.468;18.806;2023-03-04T05:01:46;100036.91;;;-0.71;72.91
68301;BME280;55146;47.468;18.806;2023-03-04T05:04:12;100043.53;;;-0.74;73.26
68301;BME280;55146;47.468;18.806;2023-03-04T05:06:37;100045.62;;;-0.76;73.42
68301;BME280;55146;47.468;18.806;2023-03-04T05:09:03;100040.22;;;-0.83;73.74
68301;BME280;55146;47.468;18.806;2023-03-04T05:11:29;100044.13;;;-0.85;74.10
68301;BME280;55146;47.468;18.806;2023-03-04T05:13:54;100041.44;;;-0.85;74.17
68301;BME280;55146;47.468;18.806;2023-03-04T05:16:20;100041.25;;;-0.84;74.41
68301;BME280;55146;47.468;18.806;2023-03-04T05:18:45;100037.06;;;-0.86;74.49
68301;BME280;55146;47.468;18.806;2023-03-04T05:21:11;100041.66;;;-0.87;74.49
68301;BME280;55146;47.468;18.806;2023-03-04T05:23:38;100038.53;;;-0.84;74.82
68301;BME280;55146;47.468;18.806;2023-03-04T05:26:05;100041.44;;;-0.85;75.27
68301;BME280;55146;47.468;18.806;2023-03-04T05:28:31;100042.41;;;-1.06;75.70
68301;BME280;55146;47.468;18.806;2023-03-04T05:30:56;100040.97;;;-1.02;76.17
68301;BME280;55146;47.468;18.806;2023-03-04T05:33:22;100044.72;;;-0.96;76.28
68301;BME280;55146;47.468;18.806;2023-03-04T05:35:48;100047.88;;;-0.93;76.16
68301;BME280;55146;47.468;18.806;2023-03-04T05:38:16;100043.28;;;-0.92;76.16
68301;BME280;55146;47.468;18.806;2023-03-04T05:40:42;100044.94;;;-0.91;75.67
68301;BME280;55146;47.468;18.806;2023-03-04T05:43:08;100042.66;;;-0.94;75.42
68301;BME280;55146;47.468;18.806;2023-03-04T05:45:33;100044.94;;;-0.91;75.65
68301;BME280;55146;47.468;18.806;2023-03-04T05:47:59;100047.66;;;-0.85;75.90
68301;BME280;55146;47.468;18.806;2023-03-04T05:50:25;100042.50;;;-0.79;75.99
68301;BME280;55146;47.468;18.806;2023-03-04T05:52:51;100048.31;;;-0.83;75.45
68301;BME280;55146;47.468;18.806;2023-03-04T05:55:17;100051.00;;;-0.83;75.61
68301;BME280;55146;47.468;18.806;2023-03-04T05:57:43;100046.47;;;-0.75;75.94
68301;BME280;55146;47.468;18.806;2023-03-04T06:00:10;100047.31;;;-0.68;76.18
68301;BME280;55146;47.468;18.806;2023-03-04T06:02:37;100054.81;;;-0.64;76.33
68301;BME280;55146;47.468;18.806;2023-03-04T06:05:03;100056.69;;;-0.58;76.25
68301;BME280;55146;47.468;18.806;2023-03-04T06:07:29;100064.19;;;-0.53;76.29
68301;BME280;55146;47.468;18.806;2023-03-04T06:09:55;100063.19;;;-0.46;76.70
68301;BME280;55146;47.468;18.806;2023-03-04T06:12:20;100067.56;;;-0.38;76.77
68301;BME280;55146;47.468;18.806;2023-03-04T06:14:46;100068.81;;;-0.34;76.95
68301;BME280;55146;47.468;18.806;2023-03-04T06:17:11;100070.06;;;-0.23;76.91
68301;BME280;55146;47.468;18.806;2023-03-04T06:19:37;100063.44;;;-0.21;76.74
68301;BME280;55146;47.468;18.806;2023-03-04T06:22:03;100068.44;;;-0.11;76.77
68301;BME280;55146;47.468;18.806;2023-03-04T06:24:29;100071.34;;;0.00;76.81
68301;BME280;55146;47.468;18.806;2023-03-04T06:26:54;100072.41;;;0.13;76.95
68301;BME280;55146;47.468;18.806;2023-03-04T06:29:20;100074.91;;;0.27;76.76
68301;BME280;55146;47.468;18.806;2023-03-04T06:31:45;100080.13;;;0.42;76.57
68301;BME280;55146;47.468;18.806;2023-03-04T06:34:11;100078.00;;;0.51;76.58
68301;BME280;55146;47.468;18.806;2023-03-04T06:36:36;100081.75;;;0.63;76.74
68301;BME280;55146;47.468;18.806;2023-03-04T06:39:05;100085.91;;;0.78;76.88
68301;BME280;55146;47.468;18.806;2023-03-04T06:41:31;100087.31;;;0.94;76.50
68301;BME280;55146;47.468;18.806;2023-03-04T06:43:57;100085.19;;;1.09;76.67
68301;BME280;55146;47.468;18.806;2023-03-04T06:46:23;100078.91;;;1.22;76.32
68301;BME280;55146;47.468;18.806;2023-03-04T06:48:48;100083.84;;;1.32;76.16
68301;BME280;55146;47.468;18.806;2023-03-04T06:51:14;100081.94;;;1.45;75.93
68301;BME280;55146;47.468;18.806;2023-03-04T06:53:40;100084.09;;;1.68;76.04
68301;BME280;55146;47.468;18.806;2023-03-04T06:56:06;100084.16;;;1.93;74.94
68301;BME280;55146;47.468;18.806;2023-03-04T06:58:32;100077.09;;;2.17;73.91
68301;BME280;55146;47.468;18.806;2023-03-04T07:01:18;100079.28;;;2.33;73.58
68301;BME280;55146;47.468;18.806;2023-03-04T07:03:45;100070.81;;;2.66;72.85
68301;BME280;55146;47.468;18.806;2023-03-04T07:06:13;100075.56;;;2.95;71.34
68301;BME280;55146;47.468;18.806;2023-03-04T07:08:40;100071.41;;;3.29;70.45
68301;BME280;55146;47.468;18.806;2023-03-04T07:11:05;100067.34;;;3.68;69.88
68301;BME280;55146;47.468;18.806;2023-03-04T07:13:31;100074.78;;;4.02;68.90
68301;BME280;55146;47.468;18.806;2023-03-04T07:15:59;100071.56;;;4.47;67.82
68301;BME280;55146;47.468;18.806;2023-03-04T07:18:24;100063.19;;;4.72;64.41
68301;BME280;55146;47.468;18.806;2023-03-04T07:20:53;100067.66;;;4.89;63.84
68301;BME280;55146;47.468;18.806;2023-03-04T07:23:18;100064.41;;;5.27;63.77
68301;BME280;55146;47.468;18.806;2023-03-04T07:25:44;100062.09;;;5.59;62.26
68301;BME280;55146;47.468;18.806;2023-03-04T07:28:10;100062.22;;;5.81;61.14
68301;BME280;55146;47.468;18.806;2023-03-04T07:30:35;100067.41;;;5.94;60.19
68301;BME280;55146;47.468;18.806;2023-03-04T07:33:00;100061.66;;;6.24;60.65
68301;BME280;55146;47.468;18.806;2023-03-04T07:35:26;100057.22;;;6.52;59.67
68301;BME280;55146;47.468;18.806;2023-03-04T07:37:51;100045.03;;;6.76;59.30
68301;BME280;55146;47.468;18.806;2023-03-04T07:40:17;100045.75;;;6.88;58.68
68301;BME280;55146;47.468;18.806;2023-03-04T07:42:42;100044.37;;;7.07;58.97
68301;BME280;55146;47.468;18.806;2023-03-04T07:45:09;100040.19;;;7.21;59.31
68301;BME280;55146;47.468;18.806;2023-03-04T07:47:35;100045.03;;;7.14;61.01
68301;BME280;55146;47.468;18.806;2023-03-04T07:50:00;100045.03;;;7.36;61.39
68301;BME280;55146;47.468;18.806;2023-03-04T07:52:25;100039.28;;;7.59;61.34
68301;BME280;55146;47.468;18.806;2023-03-04T07:54:51;100035.94;;;7.79;59.50
68301;BME280;55146;47.468;18.806;2023-03-04T07:57:16;100039.84;;;7.83;60.40
68301;BME280;55146;47.468;18.806;2023-03-04T07:59:42;100034.91;;;7.85;59.80
68301;BME280;55146;47.468;18.806;2023-03-04T08:02:09;100046.38;;;8.09;59.19
68301;BME280;55146;47.468;18.806;2023-03-04T08:04:34;100041.78;;;8.41;58.90
68301;BME280;55146;47.468;18.806;2023-03-04T08:07:00;100034.19;;;8.53;57.69
68301;BME280;55146;47.468;18.806;2023-03-04T08:09:25;100044.00;;;8.44;56.53
68301;BME280;55146;47.468;18.806;2023-03-04T08:11:51;100036.63;;;8.45;56.65
68301;BME280;55146;47.468;18.806;2023-03-04T08:14:16;100030.53;;;8.75;57.03
68301;BME280;55146;47.468;18.806;2023-03-04T08:16:41;100032.72;;;8.78;56.72
68301;BME280;55146;47.468;18.806;2023-03-04T08:19:07;100034.38;;;8.79;54.64
68301;BME280;55146;47.468;18.806;2023-03-04T08:21:33;100031.94;;;8.82;54.65
68301;BME280;55146;47.468;18.806;2023-03-04T08:24:00;100027.00;;;8.84;54.27
68301;BME280;55146;47.468;18.806;2023-03-04T08:26:31;100026.47;;;8.82;53.35
68301;BME280;55146;47.468;18.806;2023-03-04T08:29:00;100024.63;;;8.98;54.68
68301;BME280;55146;47.468;18.806;2023-03-04T08:31:27;100023.09;;;9.17;53.70
68301;BME280;55146;47.468;18.806;2023-03-04T08:33:53;100025.62;;;9.29;52.11
68301;BME280;55146;47.468;18.806;2023-03-04T08:36:19;100022.88;;;9.34;53.24
68301;BME280;55146;47.468;18.806;2023-03-04T08:38:44;100024.88;;;9.44;52.51
68301;BME280;55146;47.468;18.806;2023-03-04T08:41:11;100018.81;;;9.42;51.05
68301;BME280;55146;47.468;18.806;2023-03-04T08:43:36;100017.97;;;9.41;51.17
68301;BME280;55146;47.468;18.806;2023-03-04T08:46:02;100018.25;;;9.45;52.27
68301;BME280;55146;47.468;18.806;2023-03-04T08:48:27;100017.22;;;9.61;51.20
68301;BME280;55146;47.468;18.806;2023-03-04T08:50:53;100010.91;;;9.60;50.12
68301;BME280;55146;47.468;18.806;2023-03-04T08:53:19;100007.91;;;9.72;49.63
68301;BME280;55146;47.468;18.806;2023-03-04T08:55:45;100007.97;;;9.97;49.98
68301;BME280;55146;47.468;18.806;2023-03-04T08:58:11;100004.13;;;9.93;48.79
68301;BME280;55146;47.468;18.806;2023-03-04T09:00:40;100005.78;;;9.99;49.66
68301;BME280;55146;47.468;18.806;2023-03-04T09:03:09;100009.06;;;9.86;49.55
68301;BME280;55146;47.468;18.806;2023-03-04T09:05:36;100013.47;;;10.07;48.65
68301;BME280;55146;47.468;18.806;2023-03-04T09:08:01;100003.34;;;10.23;49.27
68301;BME280;55146;47.468;18.806;2023-03-04T09:10:27;100008.28;;;10.21;48.61
68301;BME280;55146;47.468;18.806;2023-03-04T09:12:52;100006.66;;;10.40;48.67
68301;BME280;55146;47.468;18.806;2023-03-04T09:15:18;100001.97;;;10.41;48.56
68301;BME280;55146;47.468;18.806;2023-03-04T09:17:43;99995.63;;;10.66;47.50
68301;BME280;55146;47.468;18.806;2023-03-04T09:20:11;99994.53;;;10.72;47.63
68301;BME280;55146;47.468;18.806;2023-03-04T09:22:38;99980.75;;;10.72;47.00
68301;BME280;55146;47.468;18.806;2023-03-04T09:25:04;99992.28;;;10.84;47.78
68301;BME280;55146;47.468;18.806;2023-03-04T09:27:29;99995.81;;;11.00;47.06
68301;BME280;55146;47.468;18.806;2023-03-04T09:29:55;99999.59;;;11.24;46.82
68301;BME280;55146;47.468;18.806;2023-03-04T09:32:20;99989.91;;;11.36;46.30
68301;BME280;55146;47.468;18.806;2023-03-04T09:34:46;99990.44;;;11.44;46.47
68301;BME280;55146;47.468;18.806;2023-03-04T09:37:11;99992.00;;;11.60;44.79
68301;BME280;55146;47.468;18.806;2023-03-04T09:39:36;99983.13;;;11.78;45.12
68301;BME280;55146;47.468;18.806;2023-03-04T09:42:03;99984.34;;;12.01;44.80
68301;BME280;55146;47.468;18.806;2023-03-04T09:44:33;99971.69;;;11.95;44.26
68301;BME280;55146;47.468;18.806;2023-03-04T09:47:09;99980.06;;;11.85;45.45
68301;BME280;55146;47.468;18.806;2023-03-04T09:49:40;99982.88;;;11.64;44.70
68301;BME280;55146;47.468;18.806;2023-03-04T09:57:52;99966.72;;;12.31;43.88
68301;BME280;55146;47.468;18.806;2023-03-04T10:00:40;99966.62;;;12.41;42.88
68301;BME280;55146;47.468;18.806;2023-03-04T10:03:27;99957.25;;;12.42;43.12
68301;BME280;55146;47.468;18.806;2023-03-04T10:06:05;99949.41;;;12.54;43.12
68301;BME280;55146;47.468;18.806;2023-03-04T10:08:39;99946.34;;;12.55;42.73
68301;BME280;55146;47.468;18.806;2023-03-04T10:11:30;99951.41;;;12.72;43.96
68301;BME280;55146;47.468;18.806;2023-03-04T10:16:55;99946.16;;;13.00;42.48
68301;BME280;55146;47.468;18.806;2023-03-04T10:19:47;99941.63;;;12.85;42.56
68301;BME280;55146;47.468;18.806;2023-03-04T10:22:45;99935.88;;;12.57;43.06
68301;BME280;55146;47.468;18.806;2023-03-04T10:25:31;99938.56;;;12.34;43.30
68301;BME280;55146;47.468;18.806;2023-03-04T10:27:59;99948.47;;;12.40;43.48
68301;BME280;55146;47.468;18.806;2023-03-04T10:33:22;99948.41;;;12.45;43.37
68301;BME280;55146;47.468;18.806;2023-03-04T10:35:54;99933.31;;;12.03;43.32
68301;BME280;55146;47.468;18.806;2023-03-04T10:38:22;99934.72;;;12.30;43.60
68301;BME280;55146;47.468;18.806;2023-03-04T10:40:48;99934.53;;;11.87;43.98
68301;BME280;55146;47.468;18.806;2023-03-04T10:43:15;99929.62;;;11.84;43.13
68301;BME280;55146;47.468;18.806;2023-03-04T10:45:41;99927.34;;;12.25;42.46
68301;BME280;55146;47.468;18.806;2023-03-04T10:48:19;99915.34;;;12.40;43.08
68301;BME280;55146;47.468;18.806;2023-03-04T10:50:45;99902.41;;;12.64;40.77
68301;BME280;55146;47.468;18.806;2023-03-04T10:53:28;99900.84;;;12.53;42.81
68301;BME280;55146;47.468;18.806;2023-03-04T10:55:54;99897.66;;;12.70;42.06
68301;BME280;55146;47.468;18.806;2023-03-04T10:58:20;99893.72;;;12.52;40.25
68301;BME280;55146;47.468;18.806;2023-03-04T11:01:05;99902.22;;;12.79;41.25
68301;BME280;55146;47.468;18.806;2023-03-04T11:03:33;99887.00;;;12.82;39.26
68301;BME280;55146;47.468;18.806;2023-03-04T11:06:19;99886.91;;;12.68;41.88
68301;BME280;55146;47.468;18.806;2023-03-04T11:08:57;99883.25;;;12.49;42.45
68301;BME280;55146;47.468;18.806;2023-03-04T11:11:52;99879.63;;;12.77;40.58
68301;BME280;55146;47.468;18.806;2023-03-04T11:14:28;99868.97;;;12.13;41.96
68301;BME280;55146;47.468;18.806;2023-03-04T11:16:58;99880.84;;;12.13;41.10
68301;BME280;55146;47.468;18.806;2023-03-04T11:19:30;99878.47;;;12.54;41.53
68301;BME280;55146;47.468;18.806;2023-03-04T11:21:58;99880.34;;;12.59;41.17
68301;BME280;55146;47.468;18.806;2023-03-04T11:24:26;99882.13;;;12.74;39.91
68301;BME280;55146;47.468;18.806;2023-03-04T11:27:14;99877.50;;;12.69;41.43
68301;BME280;55146;47.468;18.806;2023-03-04T11:29:50;99865.38;;;12.41;40.51
68301;BME280;55146;47.468;18.806;2023-03-04T11:32:27;99872.66;;;12.32;39.84
68301;BME280;55146;47.468;18.806;2023-03-04T11:40:35;99868.53;;;12.30;40.85
68301;BME280;55146;47.468;18.806;2023-03-04T11:43:18;99860.72;;;12.13;40.22
68301;BME280;55146;47.468;18.806;2023-03-04T12:00:37;99833.44;;;12.59;42.17
68301;BME280;55146;47.468;18.806;2023-03-04T12:06:14;99829.81;;;12.87;42.33
68301;BME280;55146;47.468;18.806;2023-03-04T12:14:35;99811.63;;;12.15;43.51
68301;BME280;55146;47.468;18.806;2023-03-04T12:17:21;99810.53;;;12.40;44.17
68301;BME280;55146;47.468;18.806;2023-03-04T12:19:58;99803.22;;;12.49;43.90
68301;BME280;55146;47.468;18.806;2023-03-04T12:23:26;99804.34;;;12.48;44.87
68301;BME280;55146;47.468;18.806;2023-03-04T12:25:55;99802.16;;;12.69;43.59
68301;BME280;55146;47.468;18.806;2023-03-04T12:31:38;99793.69;;;12.60;44.61
68301;BME280;55146;47.468;18.806;2023-03-04T12:39:39;99786.13;;;12.71;46.22
68301;BME280;55146;47.468;18.806;2023-03-04T12:44:51;99780.63;;;12.47;42.89
68301;BME280;55146;47.468;18.806;2023-03-04T12:55:16;99763.97;;;12.76;44.44
68301;BME280;55146;47.468;18.806;2023-03-04T12:57:43;99759.13;;;12.86;43.98
68301;BME280;55146;47.468;18.806;2023-03-04T13:00:21;99754.53;;;13.19;44.78
68301;BME280;55146;47.468;18.806;2023-03-04T13:03:13;99753.09;;;13.22;43.21
68301;BME280;55146;47.468;18.806;2023-03-04T13:09:20;99730.69;;;13.42;41.49
68301;BME280;55146;47.468;18.806;2023-03-04T13:11:43;99738.06;;;13.09;41.21
68301;BME280;55146;47.468;18.806;2023-03-04T13:16:43;99729.78;;;13.14;40.08
68301;BME280;55146;47.468;18.806;2023-03-04T13:19:47;99724.72;;;12.97;38.83
68301;BME280;55146;47.468;18.806;2023-03-04T13:25:32;99720.19;;;13.25;39.94
68301;BME280;55146;47.468;18.806;2023-03-04T13:33:05;99700.81;;;13.44;37.41
68301;BME280;55146;47.468;18.806;2023-03-04T13:38:32;99703.47;;;13.17;39.17
68301;BME280;55146;47.468;18.806;2023-03-04T13:43:39;99689.81;;;12.88;38.38
68301;BME280;55146;47.468;18.806;2023-03-04T13:56:36;99673.28;;;12.50;38.59
68301;BME280;55146;47.468;18.806;2023-03-04T14:04:25;99665.34;;;12.25;38.98
68301;BME280;55146;47.468;18.806;2023-03-04T14:06:52;99663.97;;;12.23;40.38
68301;BME280;55146;47.468;18.806;2023-03-04T14:09:36;99664.59;;;12.38;39.84
68301;BME280;55146;47.468;18.806;2023-03-04T14:12:03;99659.91;;;12.39;40.44
68301;BME280;55146;47.468;18.806;2023-03-04T14:14:47;99653.03;;;12.18;39.18
68301;BME280;55146;47.468;18.806;2023-03-04T14:17:27;99664.66;;;12.14;41.21
68301;BME280;55146;47.468;18.806;2023-03-04T14:19:55;99654.88;;;11.80;40.68
68301;BME280;55146;47.468;18.806;2023-03-04T14:22:36;99651.25;;;11.84;40.46
68301;BME280;55146;47.468;18.806;2023-03-04T14:27:47;99653.69;;;11.86;40.88
68301;BME280;55146;47.468;18.806;2023-03-04T14:30:26;99654.88;;;11.80;40.50
68301;BME280;55146;47.468;18.806;2023-03-04T14:32:54;99655.19;;;11.73;40.64
68301;BME280;55146;47.468;18.806;2023-03-04T14:35:38;99658.81;;;11.68;41.56